createdAt,value
2023-12-23T00:02:22.181Z,10.05
2023-12-23T00:05:08.652Z,9.32
2023-12-23T00:07:55.144Z,8.77
2023-12-23T00:10:41.279Z,8.98
2023-12-23T00:13:28.030Z,9.15
2023-12-23T00:16:14.183Z,8.90
2023-12-23T00:19:00.393Z,8.68
2023-12-23T00:21:47.369Z,8.90
2023-12-23T00:24:33.240Z,8.35
2023-12-23T00:27:19.491Z,9.07
2023-12-23T00:30:07.305Z,9.55
2023-12-23T00:32:53.188Z,10.45
2023-12-23T00:35:39.182Z,11.02
2023-12-23T00:38:25.757Z,11.07
2023-12-23T00:41:12.021Z,12.77
2023-12-23T00:43:58.069Z,12.18
2023-12-23T00:46:44.055Z,12.68
2023-12-23T00:49:30.298Z,13.88
2023-12-23T00:52:17.157Z,13.68
2023-12-23T00:55:03.956Z,12.40
2023-12-23T00:57:50.630Z,12.32
2023-12-23T01:00:39.804Z,11.75
2023-12-23T01:03:25.925Z,10.38
2023-12-23T01:06:12.095Z,11.80
2023-12-23T01:08:58.144Z,12.25
2023-12-23T01:11:44.357Z,11.85
2023-12-23T01:14:30.388Z,12.20
2023-12-23T01:17:16.600Z,11.98
2023-12-23T01:20:03.425Z,11.25
2023-12-23T01:22:49.332Z,11.20
2023-12-23T01:25:35.362Z,12.68
2023-12-23T01:28:21.470Z,12.40
2023-12-23T01:31:07.507Z,10.77
2023-12-23T01:33:53.686Z,9.15
2023-12-23T01:36:39.993Z,9.77
2023-12-23T01:39:25.961Z,10.18
2023-12-23T01:42:12.064Z,8.98
2023-12-23T01:44:57.889Z,10.15
2023-12-23T01:47:49.076Z,8.70
2023-12-23T01:50:35.451Z,9.23
2023-12-23T01:53:22.423Z,8.23
2023-12-23T01:56:09.393Z,8.85
2023-12-23T01:58:56.326Z,8.95
2023-12-23T02:01:42.989Z,10.30
2023-12-23T02:04:29.161Z,10.63
2023-12-23T02:07:15.711Z,11.20
2023-12-23T02:10:04.695Z,9.45
2023-12-23T02:13:18.520Z,9.90
2023-12-23T02:16:06.090Z,9.45
2023-12-23T02:18:53.062Z,9.25
2023-12-23T02:21:38.942Z,9.30
2023-12-23T02:24:26.140Z,9.55
2023-12-23T02:27:14.506Z,8.52
2023-12-23T02:30:01.308Z,8.10
2023-12-23T02:32:47.546Z,7.78
2023-12-23T02:35:33.542Z,7.53
2023-12-23T02:38:23.376Z,8.13
2023-12-23T02:41:09.919Z,7.70
2023-12-23T02:43:55.862Z,8.32
2023-12-23T02:46:41.759Z,8.30
2023-12-23T02:49:27.587Z,8.32
2023-12-23T02:52:15.068Z,7.85
2023-12-23T02:55:01.082Z,7.75
2023-12-23T02:57:47.083Z,7.22
2023-12-23T03:00:33.273Z,9.55
2023-12-23T03:03:19.628Z,10.55
2023-12-23T03:06:06.755Z,8.32
2023-12-23T03:08:53.058Z,9.05
2023-12-23T03:11:38.942Z,9.80
2023-12-23T03:14:25.325Z,9.30
2023-12-23T03:17:11.176Z,6.68
2023-12-23T03:19:57.243Z,6.78
2023-12-23T03:22:44.163Z,7.07
2023-12-23T03:25:30.456Z,10.30
2023-12-23T03:28:16.785Z,9.68
2023-12-23T03:31:02.666Z,8.38
2023-12-23T03:33:48.459Z,8.20
2023-12-23T03:36:34.374Z,7.93
2023-12-23T03:39:21.113Z,7.97
2023-12-23T03:42:07.260Z,7.47
2023-12-23T03:44:53.225Z,8.55
2023-12-23T03:47:41.273Z,7.47
2023-12-23T03:50:30.927Z,7.13
2023-12-23T03:53:17.349Z,7.80
2023-12-23T03:56:05.256Z,7.20
2023-12-23T03:58:51.315Z,7.25
2023-12-23T04:01:37.621Z,7.32
2023-12-23T04:04:23.987Z,7.05
2023-12-23T04:07:09.975Z,6.97
2023-12-23T04:09:55.947Z,7.00
2023-12-23T04:12:41.847Z,9.30
2023-12-23T04:15:27.735Z,8.50
2023-12-23T04:18:14.209Z,7.47
2023-12-23T04:21:00.339Z,7.32
2023-12-23T04:23:46.330Z,7.53
2023-12-23T04:26:33.917Z,7.38
2023-12-23T04:29:20.067Z,7.65
2023-12-23T04:32:07.153Z,7.43
2023-12-23T04:34:53.320Z,7.53
2023-12-23T04:37:43.450Z,7.85
2023-12-23T04:40:30.481Z,7.15
2023-12-23T04:43:16.555Z,9.27
2023-12-23T04:46:04.014Z,9.98
2023-12-23T04:48:50.303Z,11.57
2023-12-23T04:51:36.657Z,9.15
2023-12-23T04:54:23.005Z,8.05
2023-12-23T04:57:09.123Z,7.55
2023-12-23T04:59:55.180Z,7.47
2023-12-23T05:02:41.348Z,7.65
2023-12-23T05:05:27.410Z,8.07
2023-12-23T05:08:18.287Z,7.38
2023-12-23T05:11:04.843Z,8.70
2023-12-23T05:13:50.616Z,8.18
2023-12-23T05:16:36.756Z,8.23
2023-12-23T05:19:23.131Z,8.23
2023-12-23T05:22:10.009Z,7.95
2023-12-23T05:24:56.657Z,8.18
2023-12-23T05:27:42.825Z,8.13
2023-12-23T05:30:28.983Z,8.32
2023-12-23T05:33:15.328Z,8.18
2023-12-23T05:36:01.246Z,8.38
2023-12-23T05:38:47.107Z,9.13
2023-12-23T05:41:33.848Z,8.10
2023-12-23T05:44:20.034Z,8.20
2023-12-23T05:47:06.107Z,8.35
2023-12-23T05:49:52.175Z,7.80
2023-12-23T05:52:38.278Z,8.30
2023-12-23T05:55:24.366Z,8.70
2023-12-23T05:58:10.691Z,8.80
2023-12-23T06:00:56.691Z,9.57
2023-12-23T06:03:42.697Z,9.18
2023-12-23T06:06:28.741Z,8.88
2023-12-23T06:09:14.827Z,9.25
2023-12-23T06:12:00.988Z,9.15
2023-12-23T06:14:46.836Z,9.30
2023-12-23T06:17:33.027Z,9.55
2023-12-23T06:20:19.729Z,9.27
2023-12-23T06:23:05.871Z,9.40
2023-12-23T06:25:51.913Z,8.40
2023-12-23T06:28:38.230Z,9.68
2023-12-23T06:31:24.546Z,9.00
2023-12-23T06:34:10.551Z,9.63
2023-12-23T06:36:56.466Z,9.00
2023-12-23T06:39:42.465Z,9.10
2023-12-23T06:42:28.305Z,9.77
2023-12-23T06:45:14.459Z,10.77
2023-12-23T06:48:00.831Z,11.27
2023-12-23T06:50:47.421Z,9.82
2023-12-23T06:53:33.689Z,10.82
2023-12-23T06:56:20.053Z,9.93
2023-12-23T06:59:10.788Z,9.13
2023-12-23T07:01:56.903Z,8.98
2023-12-23T07:04:43.680Z,8.77
2023-12-23T07:07:29.869Z,10.02
2023-12-23T07:10:15.900Z,9.10
2023-12-23T07:13:01.762Z,9.23
2023-12-23T07:15:47.809Z,9.27
2023-12-23T07:18:33.905Z,10.88
2023-12-23T07:21:20.588Z,11.98
2023-12-23T07:24:07.056Z,9.63
2023-12-23T07:26:52.986Z,10.50
2023-12-23T07:29:44.080Z,11.13
2023-12-23T07:32:31.835Z,11.68
2023-12-23T07:35:20.989Z,11.20
2023-12-23T07:38:08.826Z,10.95
2023-12-23T07:40:55.686Z,9.60
2023-12-23T07:43:41.663Z,13.50
2023-12-23T07:46:27.538Z,12.32
2023-12-23T07:49:14.651Z,15.38
2023-12-23T07:52:01.006Z,14.52
2023-12-23T07:54:47.162Z,12.93
2023-12-23T07:57:33.169Z,13.07
2023-12-23T08:00:19.514Z,11.57
2023-12-23T08:03:05.987Z,11.48
2023-12-23T08:05:52.389Z,10.65
2023-12-23T08:08:38.386Z,10.43
2023-12-23T08:11:24.450Z,9.43
2023-12-23T08:14:12.423Z,9.63
2023-12-23T08:16:58.702Z,8.48
2023-12-23T08:19:44.678Z,9.32
2023-12-23T08:22:30.876Z,9.88
2023-12-23T08:25:17.198Z,9.63
2023-12-23T08:28:03.360Z,6.97
2023-12-23T08:30:49.692Z,7.00
2023-12-23T08:33:35.862Z,7.07
2023-12-23T08:36:22.203Z,7.63
2023-12-23T08:39:08.385Z,8.38
2023-12-23T08:41:54.705Z,8.75
2023-12-23T08:44:41.147Z,11.55
2023-12-23T08:47:27.168Z,9.07
2023-12-23T08:50:13.088Z,8.00
2023-12-23T08:52:59.126Z,9.20
2023-12-23T08:55:48.229Z,7.07
2023-12-23T08:58:34.406Z,7.80
2023-12-23T09:01:20.440Z,6.57
2023-12-23T09:04:06.616Z,5.85
2023-12-23T09:06:52.579Z,4.80
2023-12-23T09:09:41.637Z,4.80
2023-12-23T09:12:27.653Z,4.38
2023-12-23T09:15:13.847Z,4.28
2023-12-23T09:18:00.373Z,4.18
2023-12-23T09:20:46.771Z,4.18
2023-12-23T09:23:32.796Z,4.35
2023-12-23T09:26:19.208Z,3.85
2023-12-23T09:29:05.565Z,3.97
2023-12-23T09:31:51.923Z,4.15
2023-12-23T09:34:38.152Z,3.72
2023-12-23T09:37:24.387Z,3.47
2023-12-23T09:40:11.898Z,2.20
2023-12-23T09:42:57.989Z,2.08
2023-12-23T09:45:44.249Z,2.42
2023-12-23T09:48:30.482Z,2.88
2023-12-23T09:51:18.734Z,2.58
2023-12-23T09:54:08.670Z,2.67
2023-12-23T09:56:56.822Z,3.95
2023-12-23T09:59:42.987Z,2.50
2023-12-23T10:02:29.324Z,2.60
2023-12-23T10:05:15.332Z,2.30
2023-12-23T10:08:01.259Z,2.60
2023-12-23T10:10:49.978Z,2.20
2023-12-23T10:13:37.618Z,3.42
2023-12-23T10:16:23.910Z,2.75
2023-12-23T10:19:10.423Z,2.90
2023-12-23T10:21:56.500Z,2.65
2023-12-23T10:24:42.416Z,2.60
2023-12-23T10:27:31.805Z,2.70
2023-12-23T10:30:18.358Z,3.22
2023-12-23T10:33:09.745Z,3.10
2023-12-23T10:35:58.006Z,3.33
2023-12-23T10:38:50.632Z,3.33
2023-12-23T10:41:52.008Z,3.33
2023-12-23T10:44:38.343Z,3.38
2023-12-23T10:47:25.141Z,4.00
2023-12-23T10:50:11.549Z,3.40
2023-12-23T10:52:58.032Z,3.22
2023-12-23T10:55:45.145Z,3.72
2023-12-23T10:58:32.530Z,4.13
2023-12-23T11:01:21.072Z,3.83
2023-12-23T11:04:07.083Z,3.78
2023-12-23T11:06:59.657Z,3.95
2023-12-23T11:09:47.894Z,3.28
2023-12-23T11:12:34.882Z,3.75
2023-12-23T11:15:21.121Z,3.50
2023-12-23T11:18:09.064Z,3.15
2023-12-23T11:20:55.617Z,2.97
2023-12-23T11:23:41.621Z,3.10
2023-12-23T11:26:41.429Z,2.95
2023-12-23T11:29:27.739Z,3.45
2023-12-23T11:32:15.079Z,3.30
2023-12-23T11:35:02.285Z,2.92
2023-12-23T11:37:51.375Z,3.42
2023-12-23T11:40:38.112Z,3.53
2023-12-23T11:43:24.461Z,3.08
2023-12-23T12:34:38.385Z,4.25
2023-12-23T12:37:24.807Z,3.88
2023-12-23T12:40:12.403Z,4.15
2023-12-23T12:42:58.653Z,3.13
2023-12-23T12:45:44.606Z,3.40
2023-12-23T12:48:30.760Z,3.60
2023-12-23T12:51:17.454Z,4.10
2023-12-23T12:54:06.182Z,3.47
2023-12-23T12:56:52.244Z,3.08
2023-12-23T12:59:38.168Z,2.90
2023-12-23T13:02:24.557Z,3.35
2023-12-23T13:05:10.949Z,3.60
2023-12-23T13:07:57.192Z,2.80
2023-12-23T13:10:45.954Z,3.53
2023-12-23T13:13:34.146Z,4.18
2023-12-23T13:16:20.499Z,3.92
2023-12-23T13:19:07.206Z,3.60
2023-12-23T13:21:53.525Z,3.58
2023-12-23T13:24:39.631Z,3.08
2023-12-23T13:27:25.722Z,3.30
2023-12-23T13:30:12.224Z,2.90
2023-12-23T13:32:58.937Z,3.38
2023-12-23T13:35:44.987Z,3.08
2023-12-23T13:38:31.208Z,3.40
2023-12-23T13:41:29.373Z,3.10
2023-12-23T13:44:15.306Z,3.00
2023-12-23T13:47:01.812Z,2.60
2023-12-23T13:49:48.270Z,3.05
2023-12-23T13:52:35.146Z,3.90
2023-12-23T13:55:21.126Z,3.58
2023-12-23T13:58:11.099Z,3.90
2023-12-23T14:00:58.848Z,3.38
2023-12-23T14:03:45.350Z,5.10
2023-12-23T14:06:31.808Z,4.50
2023-12-23T14:09:17.796Z,3.92
2023-12-23T14:12:04.281Z,3.53
2023-12-23T14:14:50.270Z,3.60
2023-12-23T14:17:36.568Z,4.43
2023-12-23T14:20:22.784Z,5.53
2023-12-23T14:23:08.794Z,6.32
2023-12-23T14:25:55.021Z,4.70
2023-12-23T14:28:41.567Z,4.70
2023-12-23T14:31:29.374Z,3.58
2023-12-23T14:34:16.273Z,4.03
2023-12-23T14:37:02.342Z,4.07
2023-12-23T14:39:49.902Z,4.40
2023-12-23T14:42:35.949Z,5.35
2023-12-23T14:45:21.900Z,7.35
2023-12-23T14:48:08.217Z,7.38
2023-12-23T14:50:54.677Z,6.75
2023-12-23T14:53:40.920Z,8.77
2023-12-23T14:56:27.740Z,6.47
2023-12-23T14:59:14.144Z,6.28
2023-12-23T15:02:01.150Z,9.43
2023-12-23T15:04:47.236Z,6.35
2023-12-23T15:07:33.143Z,5.72
2023-12-23T15:10:19.305Z,4.97
2023-12-23T15:13:05.851Z,6.63
2023-12-23T15:15:52.328Z,7.65
2023-12-23T15:18:38.597Z,6.55
2023-12-23T15:21:25.250Z,6.68
2023-12-23T15:24:11.459Z,7.15
2023-12-23T15:26:57.555Z,7.45
2023-12-23T15:29:44.578Z,7.25
2023-12-23T15:32:32.404Z,6.50
2023-12-23T15:35:18.883Z,7.30
2023-12-23T15:38:05.194Z,10.00
2023-12-23T15:40:53.143Z,9.35
2023-12-23T15:43:39.274Z,8.85
2023-12-23T15:46:25.422Z,7.53
2023-12-23T15:49:11.955Z,9.07
2023-12-23T15:51:58.172Z,10.38
2023-12-23T15:54:46.377Z,8.88
2023-12-23T15:57:32.505Z,8.50
2023-12-23T16:00:19.268Z,8.40
2023-12-23T16:03:05.916Z,9.52
2023-12-23T16:05:52.075Z,10.35
2023-12-23T16:08:38.585Z,9.35
2023-12-23T16:11:24.984Z,10.13
2023-12-23T16:14:11.455Z,10.85
2023-12-23T16:16:57.592Z,9.73
2023-12-23T16:19:45.275Z,9.45
2023-12-23T16:22:32.133Z,9.38
2023-12-23T16:25:18.862Z,9.35
2023-12-23T16:28:05.091Z,9.52
2023-12-23T16:30:52.548Z,9.50
2023-12-23T16:33:38.870Z,9.98
2023-12-23T16:36:25.115Z,8.80
2023-12-23T16:39:11.098Z,9.77
2023-12-23T16:41:57.295Z,11.35
2023-12-23T16:44:43.548Z,11.73
2023-12-23T16:47:29.769Z,11.13
2023-12-23T16:50:16.646Z,13.07
2023-12-23T16:53:02.627Z,12.13
2023-12-23T16:55:48.682Z,12.88
2023-12-23T16:58:34.856Z,12.75
2023-12-23T17:01:21.139Z,16.48
2023-12-23T17:04:07.964Z,13.90
2023-12-23T17:06:54.306Z,14.95
2023-12-23T17:09:40.515Z,16.45
2023-12-23T17:12:28.148Z,12.85
2023-12-23T17:15:14.897Z,14.45
2023-12-23T17:18:01.728Z,11.20
2023-12-23T17:20:48.743Z,10.90
2023-12-23T17:23:35.059Z,16.48
2023-12-23T17:26:21.120Z,20.30
2023-12-23T17:29:08.453Z,14.43
2023-12-23T17:31:56.146Z,14.02
2023-12-23T17:34:42.449Z,14.32
2023-12-23T17:37:40.235Z,14.55
2023-12-23T17:40:28.946Z,13.52
2023-12-23T17:43:15.341Z,15.18
2023-12-23T17:46:01.500Z,12.52
2023-12-23T17:48:47.670Z,14.52
2023-12-23T17:51:33.780Z,13.52
2023-12-23T17:54:19.881Z,13.57
2023-12-23T17:57:06.452Z,13.65
2023-12-23T17:59:52.712Z,14.25
2023-12-23T18:02:39.157Z,16.85
2023-12-23T18:05:25.516Z,13.82
2023-12-23T18:08:12.172Z,14.20
2023-12-23T18:10:57.996Z,14.60
2023-12-23T18:13:44.178Z,9.48
2023-12-23T18:16:30.297Z,10.35
2023-12-23T18:19:16.383Z,11.93
2023-12-23T18:22:03.107Z,11.90
2023-12-23T18:24:49.075Z,12.10
2023-12-23T18:27:35.138Z,13.15
2023-12-23T18:30:24.052Z,12.52
2023-12-23T18:33:10.162Z,11.85
2023-12-23T18:35:56.588Z,15.05
2023-12-23T18:38:43.108Z,13.90
2023-12-23T18:41:29.421Z,13.93
2023-12-23T18:44:15.373Z,13.73
2023-12-23T18:47:01.253Z,13.38
2023-12-23T18:49:47.372Z,12.30
2023-12-23T18:52:33.467Z,17.55
2023-12-23T18:55:19.338Z,14.80
2023-12-23T18:58:05.536Z,14.27
2023-12-23T19:00:53.849Z,15.60
2023-12-23T19:03:40.058Z,14.00
2023-12-23T19:06:25.891Z,14.40
2023-12-23T19:09:12.967Z,16.05
2023-12-23T19:11:59.007Z,16.30
2023-12-23T19:14:45.320Z,16.77
2023-12-23T19:17:31.427Z,17.00
2023-12-23T19:20:17.638Z,16.90
2023-12-23T19:23:08.886Z,14.13
2023-12-23T19:25:56.760Z,11.65
2023-12-23T19:28:43.140Z,11.43
2023-12-23T19:31:32.354Z,12.02
2023-12-23T19:34:19.773Z,10.45
2023-12-23T19:37:05.855Z,10.52
2023-12-23T19:39:59.720Z,10.48
2023-12-23T19:42:54.488Z,11.25
2023-12-23T19:45:44.134Z,11.15
2023-12-23T19:48:30.565Z,11.90
2023-12-23T19:51:16.684Z,12.68
2023-12-23T19:54:03.114Z,12.63
2023-12-23T19:56:50.702Z,13.82
2023-12-23T19:59:37.126Z,14.05
2023-12-23T20:02:23.476Z,14.60
2023-12-23T20:05:09.908Z,12.38
2023-12-23T20:07:57.342Z,14.63
2023-12-23T20:10:43.562Z,12.98
2023-12-23T20:13:29.913Z,23.10
2023-12-23T20:16:26.235Z,15.32
2023-12-23T20:19:17.277Z,13.40
2023-12-23T20:22:03.546Z,19.75
2023-12-23T20:24:49.877Z,16.00
2023-12-23T20:27:36.377Z,14.40
2023-12-23T20:30:22.738Z,15.82
2023-12-23T20:33:09.157Z,17.85
2023-12-23T20:35:56.288Z,12.85
2023-12-23T20:38:42.570Z,11.65
2023-12-23T20:41:28.966Z,10.77
2023-12-23T20:44:15.240Z,9.35
2023-12-23T20:47:01.600Z,10.13
2023-12-23T20:49:48.018Z,10.02
2023-12-23T20:52:34.057Z,10.18
2023-12-23T20:55:21.285Z,10.27
2023-12-23T20:58:07.444Z,10.63
2023-12-23T21:00:53.739Z,11.30
2023-12-23T21:03:39.912Z,11.13
2023-12-23T21:06:26.046Z,11.82
2023-12-23T21:09:12.493Z,10.57
2023-12-23T21:11:58.521Z,11.52
2023-12-23T21:14:44.558Z,11.40
2023-12-23T21:17:30.798Z,11.40
2023-12-23T21:20:16.872Z,13.02
2023-12-23T21:23:03.311Z,15.40
2023-12-23T21:25:52.149Z,12.85
2023-12-23T21:28:38.410Z,12.65
2023-12-23T21:31:24.564Z,14.13
2023-12-23T21:34:10.976Z,14.13
2023-12-23T21:37:00.172Z,14.48
2023-12-23T21:39:46.153Z,15.50
2023-12-23T21:42:32.364Z,13.27
2023-12-23T21:45:18.450Z,12.02
2023-12-23T21:48:05.626Z,10.63
2023-12-23T21:50:55.347Z,11.50
2023-12-23T21:53:41.785Z,10.93
2023-12-23T21:56:28.526Z,11.18
2023-12-23T21:59:15.234Z,10.77
2023-12-23T22:02:01.327Z,10.40
2023-12-23T22:04:47.801Z,10.73
2023-12-23T22:07:33.819Z,12.55
2023-12-23T22:10:19.880Z,10.73
2023-12-23T22:13:06.167Z,11.80
2023-12-23T22:15:52.857Z,11.15
2023-12-23T22:18:39.398Z,10.85
2023-12-23T22:21:25.983Z,11.02
2023-12-23T22:24:12.280Z,11.65
2023-12-23T22:26:58.698Z,11.75
2023-12-23T22:29:45.304Z,10.18
2023-12-23T22:32:31.737Z,10.65
2023-12-23T22:35:18.750Z,10.35
2023-12-23T22:38:05.037Z,9.82
2023-12-23T22:40:52.142Z,9.00
2023-12-23T22:43:38.573Z,8.63
2023-12-23T22:46:28.695Z,8.20
2023-12-23T22:49:14.941Z,8.27
2023-12-23T22:52:01.168Z,8.48
2023-12-23T22:54:47.053Z,8.95
2023-12-23T22:57:42.128Z,8.23
2023-12-23T23:00:30.693Z,9.07
2023-12-23T23:03:17.562Z,9.38
2023-12-23T23:06:03.570Z,9.85
2023-12-23T23:08:49.941Z,9.75
2023-12-23T23:11:36.790Z,9.88
2023-12-23T23:14:23.112Z,10.02
2023-12-23T23:17:09.546Z,9.98
2023-12-23T23:19:56.716Z,10.40
2023-12-23T23:22:42.758Z,9.80
2023-12-23T23:25:29.085Z,10.52
2023-12-23T23:28:15.293Z,9.25
2023-12-23T23:31:02.233Z,10.40
2023-12-23T23:33:55.282Z,9.98
2023-12-23T23:36:45.614Z,10.63
2023-12-23T23:39:31.755Z,9.23
2023-12-23T23:42:18.700Z,9.60
2023-12-23T23:45:05.567Z,10.05
2023-12-23T23:47:52.025Z,9.65
2023-12-23T23:50:38.042Z,10.88
2023-12-23T23:53:24.414Z,9.35
2023-12-23T23:56:11.414Z,9.25
2023-12-23T23:58:57.876Z,8.90
